»·PEaware :: UAL759 KMCO-KSFO

UAL759 :: KMCO-KSFO

FLIGHT INFORMATION

Flight Status: Arrived
Operator:
United Airlines
More flights by this operator :: More flights under this callsign
Pilot: Jac C. (16067)
Aircraft: BOEING 737-900
(B739)
More flights by this aircraft type
Origin: KMCO Orlando Intl
United States
Destination: KSFO San Francisco Intl
United States
More flights between these airports :: More routes between these airports
Route: +CAMDT CTY SZW J20 MGM MEM VLUST/N0453F360 Q128 FLOOD J28 MLF J58 ILC RUMPS OAL INYOE DYAMD3
File this flight plan on PilotEdge
Remarks: DISREGARD PRIOR FLIGHT PLAN
Altitude:
(Current/Filed)
34,000ft
Speed:
(Current/Filed)
455kts
Departed: 28-May-18 10:47 AM
Arrived: 28-May-18 04:39 PM
Distance/Time
Traveled:
2120nm/5:52
Distance/Time
To Go:
Arrived

Flight Plot

Page will automatically refresh every two minutes.

Flight plan parsing failed; only flown route is shown


Map Options




Map Legend


Flown Route
Filed Route
Departure Airport
Arrival Airport
Navaid (VOR, NDB)
Fix

Horizontal Profiles

Position Reports

Time Latitude Longitude Heading Altitude Ground
Speed
28-May-18 10:46 28.399189 -81.761372 272 13067ft 357kts
28-May-18 10:47 28.402839 -81.876835 272 15459ft 372kts
28-May-18 10:48 28.406581 -81.996461 272 17687ft 386kts
28-May-18 10:49 28.410566 -82.120295 272 19853ft 395kts
28-May-18 10:50 28.414226 -82.246116 272 21817ft 403kts
28-May-18 10:51 28.431230 -82.370906 302 23481ft 409kts
28-May-18 10:52 28.526242 -82.443124 332 24969ft 420kts
28-May-18 10:53 28.632310 -82.500962 331 26322ft 425kts
28-May-18 10:54 28.739077 -82.560519 331 27502ft 430kts
28-May-18 10:55 28.828491 -82.610646 330 28402ft 433kts
28-May-18 10:56 28.936976 -82.671837 330 29465ft 434kts
28-May-18 10:57 29.044447 -82.732657 330 30826ft 426kts
28-May-18 10:58 29.149552 -82.792302 329 32009ft 418kts
28-May-18 10:59 29.252867 -82.851081 329 33007ft 412kts
28-May-18 11:00 29.355121 -82.909290 329 33887ft 407kts
28-May-18 11:01 29.456383 -82.967171 329 34162ft 407kts
28-May-18 11:02 29.557286 -83.025039 328 34161ft 405kts
28-May-18 11:03 29.640859 -83.107838 308 34159ft 396kts
28-May-18 11:04 29.712139 -83.204107 307 34160ft 395kts
28-May-18 11:05 29.783059 -83.301006 307 34161ft 395kts
28-May-18 11:06 29.853685 -83.397653 307 34164ft 394kts
28-May-18 11:07 29.924096 -83.494215 307 34166ft 394kts
28-May-18 11:08 29.994577 -83.591297 307 34169ft 394kts
28-May-18 11:09 30.064702 -83.688186 306 34168ft 393kts
28-May-18 11:10 30.134566 -83.784974 306 34163ft 393kts
28-May-18 11:11 30.204614 -83.882261 306 34152ft 393kts
28-May-18 11:12 30.274338 -83.979312 306 34140ft 393kts
28-May-18 11:13 30.343998 -84.076564 306 34130ft 393kts
28-May-18 11:14 30.413937 -84.174139 306 34123ft 393kts
28-May-18 11:15 30.483577 -84.271971 306 34120ft 394kts
28-May-18 11:16 30.553430 -84.370197 307 34120ft 394kts
28-May-18 11:17 30.631104 -84.460654 311 34118ft 397kts
28-May-18 11:18 30.709985 -84.550197 311 34117ft 398kts
28-May-18 11:19 30.789012 -84.640613 311 34109ft 397kts
28-May-18 11:20 30.867912 -84.730742 311 34102ft 398kts
28-May-18 11:21 30.946674 -84.821162 311 34100ft 398kts
28-May-18 11:22 31.025602 -84.912104 311 34097ft 398kts
28-May-18 11:23 31.104237 -85.002960 311 34096ft 398kts
28-May-18 11:24 31.183058 -85.094284 310 34096ft 399kts
28-May-18 11:25 31.261766 -85.185710 310 34101ft 399kts
28-May-18 11:26 31.340443 -85.277326 310 34105ft 400kts
28-May-18 11:27 31.419323 -85.369410 310 34111ft 400kts
28-May-18 11:28 31.497940 -85.461418 310 34104ft 400kts
28-May-18 11:29 31.576518 -85.553590 310 34083ft 400kts
28-May-18 11:30 31.655312 -85.646283 310 34073ft 400kts
28-May-18 11:31 31.733841 -85.738900 310 34057ft 400kts
28-May-18 11:32 31.812544 -85.831951 310 34053ft 401kts
28-May-18 11:33 31.890976 -85.924922 310 34049ft 400kts
28-May-18 11:34 31.969330 -86.018034 310 34048ft 400kts
28-May-18 11:35 32.047957 -86.111465 310 34039ft 400kts
28-May-18 11:36 32.126108 -86.204916 310 34027ft 400kts
28-May-18 11:37 32.204110 -86.298478 309 34015ft 399kts
28-May-18 11:38 32.280952 -86.393443 308 34009ft 399kts
28-May-18 11:39 32.356906 -86.488689 308 34006ft 398kts
28-May-18 11:40 32.432926 -86.584308 308 34012ft 398kts
28-May-18 11:41 32.508794 -86.679463 308 34009ft 397kts
28-May-18 11:42 32.584409 -86.774585 308 34012ft 397kts
28-May-18 11:43 32.660082 -86.870147 308 34013ft 396kts
28-May-18 11:44 32.735300 -86.965434 307 34012ft 396kts
28-May-18 11:45 32.810382 -87.060819 307 34015ft 396kts
28-May-18 11:46 32.885613 -87.156656 307 34014ft 395kts
28-May-18 11:47 32.960368 -87.252143 307 34017ft 395kts
28-May-18 11:48 33.035192 -87.347975 307 34015ft 393kts
28-May-18 11:49 33.109541 -87.443453 307 34012ft 393kts
28-May-18 11:50 33.183767 -87.539028 307 34010ft 393kts
28-May-18 11:51 33.258025 -87.634890 306 34009ft 391kts
28-May-18 11:52 33.331723 -87.730304 306 34010ft 390kts
28-May-18 11:53 33.405203 -87.825666 306 34011ft 389kts
28-May-18 11:54 33.478635 -87.921251 306 34016ft 388kts
28-May-18 11:55 33.551757 -88.016685 306 34019ft 389kts
28-May-18 11:56 33.624901 -88.112401 306 34022ft 388kts
28-May-18 11:57 33.697662 -88.207872 306 34018ft 387kts
28-May-18 11:58 33.770262 -88.303366 306 34018ft 387kts
28-May-18 11:59 33.830939 -88.383400 306 34017ft 387kts
28-May-18 12:00 33.903544 -88.479411 305 34019ft 389kts
28-May-18 12:01 33.988280 -88.591790 305 34016ft 388kts
28-May-18 12:02 34.060958 -88.688449 305 34006ft 387kts
28-May-18 12:03 34.133201 -88.784811 305 34002ft 388kts
28-May-18 12:04 34.205745 -88.881839 305 34000ft 388kts
28-May-18 12:05 34.277965 -88.978698 305 33999ft 388kts
28-May-18 12:06 34.350249 -89.075915 305 33997ft 389kts
28-May-18 12:07 34.410624 -89.157321 304 33992ft 389kts
28-May-18 12:08 34.482719 -89.254783 304 33990ft 388kts
28-May-18 12:09 34.554720 -89.352371 304 33989ft 388kts
28-May-18 12:10 34.626842 -89.450425 304 33981ft 388kts
28-May-18 12:11 34.698754 -89.548474 304 33970ft 389kts
28-May-18 12:12 34.770849 -89.647048 304 33955ft 389kts
28-May-18 12:13 34.842727 -89.745288 304 33946ft 389kts
28-May-18 12:14 34.914329 -89.843809 304 33942ft 388kts
28-May-18 12:15 34.985857 -89.942656 304 33941ft 387kts
28-May-18 12:16 35.036377 -90.054519 287 33939ft 376kts
28-May-18 12:17 35.075155 -90.172833 286 33934ft 375kts
28-May-18 12:18 35.113330 -90.291696 286 33930ft 375kts
28-May-18 12:19 35.151205 -90.410279 286 33930ft 375kts
28-May-18 12:20 35.189248 -90.529250 286 33931ft 375kts
28-May-18 12:21 35.226871 -90.647954 286 33933ft 375kts
28-May-18 12:22 35.264294 -90.766774 286 33944ft 374kts
28-May-18 12:23 35.301676 -90.886041 286 33948ft 374kts
28-May-18 12:24 35.338814 -91.005043 286 33951ft 375kts
28-May-18 12:25 35.375863 -91.124269 285 33953ft 374kts
28-May-18 12:26 35.412879 -91.243879 285 33960ft 374kts
28-May-18 12:27 35.449656 -91.363201 285 33963ft 374kts
28-May-18 12:28 35.486468 -91.483146 285 33970ft 375kts
28-May-18 12:29 35.523022 -91.602738 285 33976ft 374kts
28-May-18 12:30 35.559381 -91.722185 285 33984ft 373kts
28-May-18 12:31 35.595721 -91.842063 285 33987ft 374kts
28-May-18 12:32 35.631854 -91.961764 285 33995ft 374kts
28-May-18 12:33 35.667966 -92.081896 285 34006ft 374kts
28-May-18 12:34 35.703826 -92.201693 285 34018ft 373kts
28-May-18 12:35 35.739558 -92.321566 285 34027ft 373kts
28-May-18 12:36 35.775311 -92.442023 285 34029ft 374kts
28-May-18 12:37 35.810890 -92.562399 285 34037ft 374kts
28-May-18 12:38 35.846424 -92.683144 284 34044ft 374kts
28-May-18 12:39 35.881722 -92.803600 284 34050ft 374kts
28-May-18 12:40 35.916889 -92.924126 284 34054ft 374kts
28-May-18 12:41 35.952186 -93.045627 284 34058ft 375kts
28-May-18 12:42 35.987213 -93.166724 284 34068ft 375kts
28-May-18 12:43 36.022377 -93.288822 284 34296ft 381kts
28-May-18 12:44 36.057888 -93.412695 284 34986ft 380kts
28-May-18 12:45 36.092994 -93.535691 284 35617ft 379kts
28-May-18 12:46 36.127962 -93.658760 284 36101ft 379kts
28-May-18 12:47 36.162945 -93.781695 284 36118ft 378kts
28-May-18 12:48 36.197522 -93.904443 284 36130ft 377kts
28-May-18 12:49 36.231892 -94.027596 284 36135ft 377kts
28-May-18 12:50 36.267042 -94.150059 285 36138ft 378kts
28-May-18 12:51 36.303896 -94.272038 285 36135ft 378kts
28-May-18 12:52 36.340673 -94.394569 285 36136ft 378kts
28-May-18 12:53 36.377164 -94.516585 285 36146ft 377kts
28-May-18 12:54 36.414072 -94.638859 285 36157ft 377kts
28-May-18 12:55 36.450455 -94.760689 285 36164ft 376kts
28-May-18 12:56 36.486584 -94.882425 285 36166ft 376kts
28-May-18 12:57 36.522696 -95.004716 284 36171ft 376kts
28-May-18 12:58 36.558583 -95.126819 284 36177ft 376kts
28-May-18 12:59 36.594330 -95.248993 284 36181ft 376kts
28-May-18 13:00 36.630091 -95.371697 284 36186ft 376kts
28-May-18 13:01 36.665522 -95.493935 284 36190ft 375kts
28-May-18 13:02 36.700941 -95.616633 284 36190ft 375kts
28-May-18 13:03 36.736351 -95.738932 284 36193ft 375kts
28-May-18 13:04 36.771289 -95.861412 284 36199ft 375kts
28-May-18 13:05 36.806200 -95.984415 284 36200ft 375kts
28-May-18 13:06 36.835469 -96.108327 280 36201ft 371kts
28-May-18 13:07 36.861569 -96.233337 280 36206ft 371kts
28-May-18 13:08 36.887649 -96.357968 280 36212ft 371kts
28-May-18 13:09 36.913992 -96.482581 280 36217ft 371kts
28-May-18 13:10 36.936722 -96.589647 280 36222ft 370kts
28-May-18 13:11 36.962866 -96.714012 280 36226ft 370kts
28-May-18 13:12 36.988819 -96.838445 280 36230ft 370kts
28-May-18 13:13 37.014706 -96.963390 280 36233ft 370kts
28-May-18 13:14 37.040291 -97.087641 280 36235ft 369kts
28-May-18 13:15 37.065824 -97.212351 280 36239ft 369kts
28-May-18 13:16 37.091128 -97.336698 280 36241ft 368kts
28-May-18 13:17 37.116279 -97.460957 280 36243ft 368kts
28-May-18 13:18 37.141296 -97.585379 280 36241ft 367kts
28-May-18 13:19 37.166110 -97.709462 280 36237ft 367kts
28-May-18 13:20 37.190772 -97.833556 279 36235ft 366kts
28-May-18 13:21 37.215332 -97.957824 279 36235ft 366kts
28-May-18 13:22 37.239677 -98.081746 279 36230ft 366kts
28-May-18 13:23 37.263950 -98.206074 279 36225ft 366kts
28-May-18 13:24 37.288022 -98.330079 279 36221ft 366kts
28-May-18 13:25 37.311959 -98.454106 279 36220ft 366kts
28-May-18 13:26 37.335822 -98.578587 279 36220ft 365kts
28-May-18 13:27 37.359475 -98.702704 279 36222ft 365kts
28-May-18 13:28 37.382989 -98.826838 279 36228ft 365kts
28-May-18 13:29 37.406438 -98.951391 279 36232ft 365kts
28-May-18 13:30 37.429673 -99.075575 279 36234ft 365kts
28-May-18 13:31 37.452838 -99.200155 279 36236ft 365kts
28-May-18 13:32 37.475800 -99.324357 279 36237ft 364kts
28-May-18 13:33 37.498547 -99.448296 279 36239ft 363kts
28-May-18 13:34 37.521237 -99.572461 279 36236ft 363kts
28-May-18 13:35 37.543661 -99.696261 279 36242ft 363kts
28-May-18 13:36 37.565958 -99.820070 279 36242ft 362kts
28-May-18 13:37 37.588198 -99.944301 279 36241ft 362kts
28-May-18 13:38 37.610187 -100.067963 278 36242ft 362kts
28-May-18 13:39 37.632153 -100.192284 278 36244ft 362kts
28-May-18 13:40 37.653910 -100.316225 278 36248ft 362kts
28-May-18 13:41 37.675559 -100.440348 278 36252ft 362kts
28-May-18 13:42 37.697142 -100.564932 278 36256ft 362kts
28-May-18 13:43 37.718536 -100.689221 278 36258ft 363kts
28-May-18 13:44 37.739907 -100.814219 278 36262ft 363kts
28-May-18 13:45 37.761081 -100.938946 278 36263ft 363kts
28-May-18 13:46 37.782140 -101.063753 278 36269ft 364kts
28-May-18 13:47 37.803171 -101.189335 278 36273ft 364kts
28-May-18 13:48 37.823990 -101.314532 277 36278ft 364kts
28-May-18 13:49 37.842669 -101.440162 275 36285ft 363kts
28-May-18 13:50 37.858127 -101.563693 277 36302ft 363kts
28-May-18 13:51 37.874353 -101.689531 275 36289ft 361kts
28-May-18 13:52 37.890186 -101.815599 275 36289ft 362kts
28-May-18 13:53 37.913329 -101.940106 279 36289ft 364kts
28-May-18 13:54 37.937563 -102.064414 279 36288ft 364kts
28-May-18 13:55 37.961095 -102.189361 279 36285ft 363kts
28-May-18 13:56 37.984344 -102.313937 279 36280ft 363kts
28-May-18 13:57 38.003385 -102.439398 276 36276ft 363kts
28-May-18 13:58 38.020345 -102.565428 276 36271ft 361kts
28-May-18 13:59 38.037260 -102.691301 276 36270ft 362kts
28-May-18 14:00 38.054419 -102.817536 276 36270ft 362kts
28-May-18 14:01 38.071623 -102.943325 276 36273ft 362kts
28-May-18 14:02 38.088584 -103.069433 276 36279ft 363kts
28-May-18 14:03 38.105419 -103.196092 275 36284ft 363kts
28-May-18 14:04 38.122037 -103.322381 275 36288ft 363kts
28-May-18 14:05 38.138579 -103.449249 275 36289ft 364kts
28-May-18 14:06 38.154957 -103.575984 275 36289ft 364kts
28-May-18 14:07 38.171194 -103.702761 275 36288ft 364kts
28-May-18 14:08 38.187401 -103.830414 275 36286ft 365kts
28-May-18 14:09 38.203411 -103.957680 275 36282ft 365kts
28-May-18 14:10 38.219281 -104.084972 275 36278ft 365kts
28-May-18 14:11 38.235069 -104.212698 275 36274ft 365kts
28-May-18 14:12 38.250650 -104.340032 275 36274ft 364kts
28-May-18 14:13 38.263530 -104.446165 274 36271ft 364kts
28-May-18 14:14 38.278896 -104.573876 275 36270ft 364kts
28-May-18 14:15 38.294149 -104.701078 275 36276ft 364kts
28-May-18 14:16 38.309407 -104.828612 274 36278ft 364kts
28-May-18 14:17 38.324221 -104.956552 274 36277ft 364kts
28-May-18 14:18 38.338882 -105.084157 274 36273ft 364kts
28-May-18 14:19 38.347705 -105.209771 271 36273ft 364kts
28-May-18 14:20 38.356843 -105.360027 271 36278ft 364kts
28-May-18 14:21 38.364972 -105.488752 271 36291ft 365kts
28-May-18 14:22 38.373234 -105.617517 271 36301ft 365kts
28-May-18 14:23 38.380096 -105.725237 271 36306ft 365kts
28-May-18 14:24 38.387861 -105.854072 271 36310ft 365kts
28-May-18 14:25 38.395472 -105.982954 271 36314ft 365kts
28-May-18 14:26 38.403175 -106.112428 271 36338ft 365kts
28-May-18 14:27 38.410281 -106.239341 270 36405ft 366kts
28-May-18 14:28 38.417384 -106.368530 270 36459ft 365kts
28-May-18 14:29 38.424255 -106.498151 270 36450ft 365kts
28-May-18 14:30 38.430939 -106.627344 271 36390ft 365kts
28-May-18 14:31 38.438066 -106.756432 270 36302ft 366kts
28-May-18 14:32 38.444555 -106.886263 270 36238ft 366kts
28-May-18 14:33 38.450828 -107.015613 270 36213ft 366kts
28-May-18 14:34 38.452926 -107.141206 267 36218ft 366kts
28-May-18 14:35 38.453054 -107.271254 267 36226ft 366kts
28-May-18 14:36 38.453191 -107.398495 267 36231ft 367kts
28-May-18 14:37 38.453533 -107.528574 267 36230ft 367kts
28-May-18 14:38 38.453931 -107.655133 267 36223ft 368kts
28-May-18 14:39 38.454042 -107.783523 267 36213ft 368kts
28-May-18 14:40 38.453958 -107.914026 267 36210ft 369kts
28-May-18 14:41 38.453711 -108.045217 266 36210ft 369kts
28-May-18 14:42 38.453336 -108.170945 266 36218ft 369kts
28-May-18 14:43 38.453076 -108.301635 266 36222ft 369kts
28-May-18 14:44 38.452295 -108.432701 266 36219ft 368kts
28-May-18 14:45 38.451328 -108.563266 266 36224ft 368kts
28-May-18 14:46 38.450257 -108.693742 266 36224ft 368kts
28-May-18 14:47 38.448937 -108.824663 266 36222ft 368kts
28-May-18 14:48 38.447433 -108.955120 266 36220ft 368kts
28-May-18 14:49 38.446015 -109.085510 266 36216ft 368kts
28-May-18 14:50 38.444727 -109.216399 266 36211ft 368kts
28-May-18 14:51 38.443123 -109.346796 266 36208ft 368kts
28-May-18 14:52 38.441312 -109.477157 265 36202ft 368kts
28-May-18 14:53 38.439318 -109.608352 265 36194ft 369kts
28-May-18 14:54 38.437181 -109.738963 265 36193ft 369kts
28-May-18 14:55 38.434893 -109.869688 265 36195ft 369kts
28-May-18 14:56 38.432456 -110.000766 265 36197ft 369kts
28-May-18 14:57 38.429877 -110.131448 265 36199ft 369kts
28-May-18 14:58 38.427159 -110.262038 265 36200ft 369kts
28-May-18 14:59 38.424559 -110.393191 265 36201ft 369kts
28-May-18 15:00 38.421460 -110.523792 264 36200ft 369kts
28-May-18 15:01 38.418163 -110.654348 264 36200ft 369kts
28-May-18 15:02 38.415617 -110.785133 265 36200ft 368kts
28-May-18 15:03 38.413346 -110.915521 265 36200ft 368kts
28-May-18 15:04 38.410877 -111.045851 265 36201ft 368kts
28-May-18 15:05 38.408462 -111.176824 265 36201ft 369kts
28-May-18 15:06 38.406215 -111.307259 264 36201ft 368kts
28-May-18 15:07 38.403635 -111.438232 264 36201ft 369kts
28-May-18 15:08 38.400851 -111.568748 264 36189ft 368kts
28-May-18 15:09 38.397895 -111.699359 264 36188ft 369kts
28-May-18 15:10 38.394783 -111.830011 264 36183ft 368kts
28-May-18 15:11 38.391535 -111.960238 264 36168ft 368kts
28-May-18 15:12 38.388140 -112.090509 264 36161ft 369kts
28-May-18 15:13 38.384578 -112.221621 264 36145ft 369kts
28-May-18 15:14 38.380885 -112.352145 263 36129ft 369kts
28-May-18 15:15 38.377051 -112.482586 263 36116ft 368kts
28-May-18 15:16 38.373139 -112.613413 264 36101ft 369kts
28-May-18 15:17 38.369207 -112.744175 263 36091ft 370kts
28-May-18 15:18 38.364782 -112.875307 263 36083ft 369kts
28-May-18 15:19 38.360240 -113.006127 263 36080ft 370kts
28-May-18 15:20 38.351044 -113.136364 260 36079ft 369kts
28-May-18 15:21 38.340818 -113.266805 260 36078ft 369kts
28-May-18 15:22 38.330573 -113.397161 260 36076ft 370kts
28-May-18 15:23 38.320631 -113.527536 260 36074ft 370kts
28-May-18 15:24 38.310525 -113.658257 260 36076ft 370kts
28-May-18 15:25 38.300184 -113.788544 260 36075ft 370kts
28-May-18 15:26 38.289661 -113.918803 260 36074ft 370kts
28-May-18 15:27 38.279185 -114.049447 260 36073ft 370kts
28-May-18 15:28 38.268366 -114.179510 259 36072ft 370kts
28-May-18 15:29 38.257259 -114.309495 259 36070ft 370kts
28-May-18 15:30 38.247635 -114.440200 262 36060ft 372kts
28-May-18 15:31 38.243428 -114.571557 262 36047ft 372kts
28-May-18 15:32 38.238766 -114.702555 262 36046ft 371kts
28-May-18 15:33 38.233850 -114.833395 262 36045ft 371kts
28-May-18 15:34 38.229305 -114.964891 262 36037ft 371kts
28-May-18 15:35 38.224394 -115.095848 262 36036ft 371kts
28-May-18 15:36 38.219260 -115.226491 262 36035ft 370kts
28-May-18 15:37 38.213922 -115.357423 262 36037ft 370kts
28-May-18 15:38 38.208446 -115.487928 261 36039ft 370kts
28-May-18 15:39 38.202797 -115.618937 261 36037ft 370kts
28-May-18 15:40 38.197024 -115.749410 261 36032ft 370kts
28-May-18 15:41 38.191107 -115.879835 261 36030ft 370kts
28-May-18 15:42 38.185030 -116.010658 261 36028ft 370kts
28-May-18 15:43 38.178830 -116.140973 261 36019ft 369kts
28-May-18 15:44 38.172482 -116.271218 261 36014ft 369kts
28-May-18 15:45 38.165972 -116.401870 261 36015ft 369kts
28-May-18 15:46 38.159344 -116.532060 261 36016ft 370kts
28-May-18 15:47 38.152564 -116.662368 261 36016ft 369kts
28-May-18 15:48 38.145626 -116.792902 260 36018ft 369kts
28-May-18 15:49 38.138796 -116.923013 260 36019ft 369kts
28-May-18 15:50 38.131589 -117.053368 260 36019ft 369kts
28-May-18 15:51 38.124094 -117.183311 260 36019ft 370kts
28-May-18 15:52 38.109284 -117.311141 250 36016ft 364kts
28-May-18 15:53 38.081277 -117.434735 249 36010ft 363kts
28-May-18 15:54 38.052871 -117.557511 249 36001ft 363kts
28-May-18 15:55 38.024137 -117.680077 249 35989ft 363kts
28-May-18 15:56 37.999500 -117.804616 257 35977ft 367kts
28-May-18 15:57 37.985945 -117.932742 257 35966ft 367kts
28-May-18 15:58 37.972244 -118.061201 256 35955ft 367kts
28-May-18 15:59 37.958475 -118.189167 256 35948ft 367kts
28-May-18 16:00 37.945049 -118.317218 256 35944ft 367kts
28-May-18 16:01 37.931487 -118.445618 256 35968ft 367kts
28-May-18 16:02 37.917447 -118.573419 256 35982ft 366kts
28-May-18 16:03 37.903166 -118.701077 256 35443ft 366kts
28-May-18 16:04 37.888727 -118.828815 256 34443ft 364kts
28-May-18 16:05 37.874079 -118.955884 256 33444ft 367kts
28-May-18 16:06 37.859112 -119.084074 256 32553ft 370kts
28-May-18 16:07 37.843948 -119.213610 256 31853ft 373kts
28-May-18 16:08 37.829001 -119.343693 256 31152ft 375kts
28-May-18 16:09 37.813565 -119.474908 255 30451ft 378kts
28-May-18 16:10 37.797880 -119.606259 255 29753ft 379kts
28-May-18 16:11 37.781931 -119.738345 255 29054ft 381kts
28-May-18 16:12 37.765735 -119.871162 255 28257ft 369kts
28-May-18 16:13 37.750316 -119.996469 255 27257ft 361kts
28-May-18 16:14 37.735108 -120.121133 255 27084ft 358kts
28-May-18 16:15 37.719311 -120.246330 255 27085ft 360kts
28-May-18 16:16 37.703408 -120.371121 255 27086ft 360kts
28-May-18 16:17 37.688655 -120.496130 256 25911ft 356kts
28-May-18 16:18 37.674294 -120.618482 256 24337ft 349kts
28-May-18 16:19 37.660018 -120.738663 256 22794ft 343kts
28-May-18 16:20 37.646029 -120.855672 256 21277ft 334kts
28-May-18 16:21 37.631920 -120.971106 255 19796ft 329kts
28-May-18 16:22 37.616974 -121.084003 255 18354ft 323kts
28-May-18 16:23 37.601932 -121.195283 255 16965ft 319kts
28-May-18 16:24 37.587910 -121.304673 257 15582ft 303kts
28-May-18 16:25 37.576775 -121.403215 256 14088ft 277kts
28-May-18 16:26 37.565632 -121.498599 256 13080ft 275kts
28-May-18 16:27 37.555998 -121.580701 256 12035ft 274kts
28-May-18 16:28 37.539758 -121.672630 249 10887ft 260kts
28-May-18 16:29 37.518400 -121.760621 250 9665ft 267kts
28-May-18 16:30 37.496527 -121.851387 251 8473ft 266kts
28-May-18 16:31 37.501086 -121.942377 278 7102ft 259kts
28-May-18 16:32 37.514147 -122.027849 278 5770ft 237kts
28-May-18 16:33 37.525835 -122.105485 279 4548ft 214kts
28-May-18 16:34 37.538168 -122.178374 291 3266ft 216kts
28-May-18 16:35 37.565030 -122.241763 296 2035ft 185kts
28-May-18 16:36 37.587138 -122.294331 294 1128ft 147kts
28-May-18 16:37 37.604937 -122.337069 294 312ft 136kts
28-May-18 16:38 37.620287 -122.373080 296 20ft 50kts
28-May-18 16:39 37.621954 -122.378263 278 20ft 15kts
28-May-18 16:40 37.621043 -122.383356 199 20ft 12kts
28-May-18 16:41 37.618942 -122.382882 214 20ft 5kts

Navigation Log

Ident Type
Flight plan parsing failed, navigation log unavailable